Strona główna
METAR-TAF:

METAR-TAF

Lotnisko :

Port lotniczy Londyn-Oksford

Oksford, Anglia

Szerokość geograficzna: 51-50-13N, Długość geograficzna: 1-19-12W, wysokość: 82 m

Aktualna obserwacja pogody

Raport powstał 1 godzina i 14 minut temu, godzina 18:20 UTC
Wiatr 6 kt od północny wschód
Temperatura 4°C
Wilgotność 100%
Ciśnienie 1017 hPa
Widzialność: 2500 m
Rozproszone chmury na wysokości 300 ft
Przerywane chmury na wysokości 2600 ft
zamglenie

METAR: EGTK 271820Z 05006KT 2500 BR SCT003 BKN026 04/04 Q1017

czas: 19:34 (19:34 UTC)

Prognoza

Raport powstał 2 godziny i 35 minut temu, godzina 16:59 UTC
Prognoza ważna od 27 godzina 18 UTC do 27 godzina 23 UTC
Wiatr 4 kt od północno-północny wschód
Widzialność: 2500 m
Rozproszone chmury na wysokości 300 ft
zamglenie
Przejściowo
od 27 godzina 18 UTC do 27 godzina 23 UTC
Widzialność: 1200 m
Przerywane chmury na wysokości 200 ft

TAF: EGTK 271659Z 2718/2723 03004KT 2500 BR SCT003 TEMPO 2718/2723 1200 BKN002

Obserwacja i prognoza pogody dla ponad 4000 lotnisk (raport METAR i TAF).

Dostępne stacje oznaczono żółtymi i czerwonymi punktami na mapie.

Najedź kursorem aby zobaczyć nazwę stacji.

Kliknij aby zobaczyć obserwacje i prognozy pogody.

Aby zmienić mapę: kliknij na zielony przycisk z czarnym krzyżykiem, aby powiększyć; na zielony przycisk z myślnikiem, aby pomniejszyć; na zielone strzałki, aby przejść do map sąsiednich.


METAR-TAF: